Flight Track Log - Related Links

Times and Time Zones

All times are in EDT time to prevent confusion due to time zone crossing. See the N662US flight status page for this flight to view local times or setup timezone preferences in your user account.

Time Position Orientation Groundspeed Altitude Reporting Facility
EDT Latitude Longitude Course Direction KTS MPH feet Rate Location/Type
Sun 02:46:37 AM 35.8020 140.3500 332° Northwest 182 209 1,700  Level FlightAware ADS-B
Sun 02:47:02 AM 35.8210 140.3350 327° Northwest 182 209 2,600 1,964 Climbing FlightAware ADS-B
Sun 02:47:32 AM 35.8430 140.3200 331° Northwest 182 209 3,500 1,418 Climbing FlightAware ADS-B
Sun 02:47:57 AM 35.8640 140.3040 328° Northwest 207 238 3,900 857 Climbing FlightAware ADS-B
Sun 02:48:14 AM 35.8770 140.2980 339° North 219 252 4,100 585 Climbing FlightAware ADS-B
Sun 02:48:38 AM 35.8960 140.3040 14° North 229 264 4,300 706 Climbing FlightAware ADS-B
Sun 02:48:48 AM 35.9020 140.3130 51° Northeast 229 264 4,500 1,660 Climbing FlightAware ADS-B
Sun 02:49:25 AM 35.9050 140.3740 87° East 293 337 5,600 2,237 Climbing FlightAware ADS-B
Sun 02:49:47 AM 35.8900 140.4100 117° Southeast 302 348 6,700 2,936 Climbing FlightAware ADS-B
Sun 02:50:12 AM 35.8710 140.4440 125° Southeast 306 352 7,900 3,000 Climbing FlightAware ADS-B
Sun 02:50:33 AM 35.8510 140.4790 125° Southeast 310 357 9,000 2,571 Climbing FlightAware ADS-B
Sun 02:51:01 AM 35.8300 140.5140 126° Southeast 316 364 10,000 1,941 Climbing FlightAware ADS-B
Sun 02:51:41 AM 35.7950 140.5750 125° Southeast 342 394 11,200 1,462 Climbing FlightAware ADS-B
Sun 02:52:19 AM 35.7610 140.6350 125° Southeast 375 432 11,900 1,412 Climbing FlightAware ADS-B
Sun 02:53:06 AM 35.7030 140.7340 126° Southeast 417 480 13,200 1,955 Climbing FlightAware ADS-B
Sun 02:53:48 AM 35.6530 140.8210 125° Southeast 431 496 14,800 1,500 Climbing FlightAware ADS-B
Sun 02:54:42 AM 35.5880 140.9330 125° Southeast 441 507 15,600 1,375 Climbing FlightAware ADS-B
Sun 02:55:24 AM 35.5430 141.0110 125° Southeast 450 518 17,000 2,024 Climbing FlightAware ADS-B
Sun 02:56:05 AM 35.4910 141.1090 123° Southeast 458 527 18,400 1,821 Climbing FlightAware ADS-B
Sun 02:57:16 AM 35.4380 141.2730 112° Southeast 471 542 20,400 1,662 Climbing FlightAware ADS-B
Sun 02:58:15 AM 35.3930 141.4230 110° East 482 555 22,000 1,500 Climbing FlightAware ADS-B
Sun 02:58:52 AM 35.3650 141.5200 109° East 493 567 22,800 1,271 Climbing FlightAware ADS-B
Sun 02:59:40 AM 35.3550 141.6500 95° East 506 582 23,800 1,234 Climbing FlightAware ADS-B
Sun 03:00:39 AM 35.3830 141.8100 78° East 519 597 25,000 1,294 Climbing FlightAware ADS-B
Sun 03:01:22 AM 35.4440 141.9350 59° Northeast 527 606 26,000 759 Climbing FlightAware ADS-B
Sun 03:02:06 AM 35.4810 142.0090 58° Northeast 529 609 26,100 1,157 Climbing FlightAware ADS-B
Sun 03:02:45 AM 35.5480 142.1380 57° Northeast 535 616 27,600 1,630 Climbing FlightAware ADS-B
Sun 03:03:27 AM 35.6010 142.2450 59° Northeast 538 619 28,300 1,373 Climbing FlightAware ADS-B
Sun 03:04:08 AM 35.6610 142.3660 59° Northeast 539 620 29,500 1,419 Climbing FlightAware ADS-B
Sun 03:05:00 AM 35.7260 142.4970 59° Northeast 538 619 30,500 923 Climbing FlightAware ADS-B
Sun 03:06:18 AM 35.8200 142.6920 59° Northeast 536 617 31,500 804 Climbing FlightAware ADS-B
Sun 03:06:52 AM 35.8730 142.8020 59° Northeast 537 618 32,000 297 Climbing FlightAware ADS-B
Sun 03:07:59 AM 35.9460 142.9530 59° Northeast 537 618 32,000  Level FlightAware ADS-B
Sun 03:08:37 AM 36.0020 143.0710 60° Northeast 530 610 32,000  Level FlightAware ADS-B
Sun 03:09:12 AM 36.0470 143.1640 59° Northeast 526 605 32,000  Level FlightAware ADS-B
Sun 03:09:57 AM 36.0990 143.2730 59° Northeast 524 603 32,000  Level FlightAware ADS-B
Sun 03:10:46 AM 36.1580 143.3980 60° Northeast 523 602 32,000  Level FlightAware ADS-B
Sun 03:11:26 AM 36.1990 143.4870 60° Northeast 523 602 32,000  Level FlightAware ADS-B
Sun 03:12:02 AM 36.2360 143.5660 60° Northeast 523 602 32,000  Level FlightAware ADS-B
Sun 03:12:50 AM 36.2860 143.6720 60° Northeast 523 602 32,000 50 Level FlightAware ADS-B
Sun 03:14:03 AM 36.3980 143.9030 59° Northeast 534 615 32,100 55 Climbing FlightAware ADS-B
Sun 03:14:39 AM 36.4360 143.9830 59° Northeast 534 615 32,100  Level FlightAware ADS-B
Sun 03:15:27 AM 36.4880 144.0910 59° Northeast 534 615 32,100  Level FlightAware ADS-B
Sun 03:16:03 AM 36.5270 144.1710 59° Northeast 534 615 32,100  Level FlightAware ADS-B
Sun 03:16:40 AM 36.5670 144.2540 59° Northeast 534 615 32,100  Level FlightAware ADS-B
Sun 03:17:28 AM 36.6190 144.3620 59° Northeast 534 615 32,100  Level FlightAware ADS-B
Sun 03:18:06 AM 36.6600 144.4470 59° Northeast 534 615 32,100  Level FlightAware ADS-B
Sun 03:18:54 AM 36.7120 144.5550 59° Northeast 534 615 32,100  Level FlightAware ADS-B
Sun 03:19:30 AM 36.7510 144.6360 59° Northeast 534 615 32,100  Level FlightAware ADS-B
Sun 03:20:16 AM 36.8010 144.7390 59° Northeast 534 615 32,100  Level FlightAware ADS-B
Sun 03:21:03 AM 36.8520 144.8450 59° Northeast 534 615 32,100  Level FlightAware ADS-B
Sun 03:21:40 AM 36.8920 144.9280 59° Northeast 534 615 32,100  Level FlightAware ADS-B
Sun 03:22:17 AM 36.9320 145.0110 59° Northeast 534 615 32,100  Level FlightAware ADS-B
Sun 03:23:05 AM 36.9840 145.1190 59° Northeast 534 615 32,100 18 Level FlightAware ADS-B
Sun 05:06:14 AM 42.6167 165.0000 82° East 564 649 34,000 17 Climbing Oakland Oceanic (ODAPS)
Sun 05:16:11 AM 42.8167 167.1833 84° East 577 664 34,000 40 Level Oakland Oceanic (ODAPS)
Sun 05:31:28 AM 43.0000 170.0000 79° East 587 676 35,000 37 Climbing Oakland Oceanic (ODAPS)
Sun 05:42:59 AM 43.4167 173.1667 81° East 588 677 35,000  Level Oakland Oceanic (ODAPS)
Sun 06:09:37 AM 43.9500 179.1667 85° East 600 690 35,000  Level Oakland Oceanic (ODAPS)
Sun 06:13:35 AM 44.0000 -180.0000 79° East 569 655 35,000  Level Oakland Oceanic (ODAPS)
Sun 06:14:12 AM 44.0333 -179.7833 79° East 569 655 35,000  Level Oakland Oceanic (ODAPS)
Sun 06:36:33 AM 44.6000 -175.0667 82° East 549 632 35,000  Level Oakland Oceanic (ODAPS)
Sun 07:00:25 AM 45.0000 -170.0000 70° East 537 618 35,000  Level Oakland Oceanic (ODAPS)
Sun 07:03:03 AM 45.1500 -169.4167 71° East 535 616 35,000  Level Oakland Oceanic (ODAPS)
Sun 07:29:39 AM 46.3333 -163.9167 75° East 529 609 35,000 22 Level Oakland Oceanic (ODAPS)
Sun 07:48:52 AM 47.0000 -160.0000 78° East 521 600 36,000 38 Climbing Oakland Oceanic (ODAPS)
Sun 07:56:11 AM 47.2333 -158.3500 79° East 518 596 36,000  Level Oakland Oceanic (ODAPS)
Sun 08:22:56 AM 47.8167 -152.6833 83° East 524 603 36,000  Level Oakland Oceanic (ODAPS)
Sun 08:29:00 AM 47.9161 -151.3440 84° East 524 603 36,000  Level FlightAware Transoceanic
Sun 08:30:00 AM 47.9312 -151.1203 84° East 524 603 36,000  Level FlightAware Transoceanic
Sun 08:31:00 AM 47.9458 -150.8965 85° East 524 603 36,000  Level FlightAware Transoceanic
Sun 08:32:00 AM 47.9600 -150.6726 85° East 524 603 36,000  Level FlightAware Transoceanic
Sun 08:33:00 AM 47.9738 -150.4485 85° East 524 603 36,000  Level FlightAware Transoceanic
Sun 08:34:00 AM 47.9871 -150.2243 85° East 524 603 36,000  Level FlightAware Transoceanic
Sun 08:35:00 AM 48.0000 -150.0000 86° East 524 603 36,000  Level FlightAware Transoceanic
Sun 08:35:46 AM 48.0000 -150.0000 86° East 516 594 36,000  Level Oakland Oceanic (ODAPS)
Sun 08:36:00 AM 48.0089 -149.7922 86° East 524 603 36,000  Level FlightAware Transoceanic
Sun 08:37:00 AM 48.0173 -149.5844 87° East 524 603 36,000  Level FlightAware Transoceanic
Sun 08:38:00 AM 48.0254 -149.3764 87° East 524 603 36,000  Level FlightAware Transoceanic
Sun 08:39:00 AM 48.0331 -149.1685 87° East 524 603 36,000  Level FlightAware Transoceanic
Sun 08:40:00 AM 48.0405 -148.9604 87° East 524 603 36,000  Level FlightAware Transoceanic
Sun 08:41:00 AM 48.0475 -148.7523 87° East 524 603 36,000  Level FlightAware Transoceanic
Sun 08:42:00 AM 48.0550 -148.5131 87° East 516 594 36,000  Level FlightAware Transoceanic
Sun 08:43:00 AM 48.0613 -148.3005 88° East 516 594 36,000  Level FlightAware Transoceanic
Sun 08:44:00 AM 48.0672 -148.0878 88° East 516 594 36,000  Level FlightAware Transoceanic
Sun 08:45:00 AM 48.0727 -147.8750 88° East 516 594 36,000  Level FlightAware Transoceanic
Sun 08:46:00 AM 48.0779 -147.6623 88° East 516 594 36,000  Level FlightAware Transoceanic
Sun 08:47:00 AM 48.0826 -147.4494 88° East 516 594 36,000  Level FlightAware Transoceanic
Sun 08:48:00 AM 48.0869 -147.2366 88° East 516 594 36,000  Level FlightAware Transoceanic
Sun 08:49:00 AM 48.0908 -147.0237 88° East 516 594 36,000  Level FlightAware Transoceanic
Sun 08:49:30 AM 48.0833 -146.9833 88° East 489 563 36,000  Level Oakland Oceanic (ODAPS)
Sun 08:50:00 AM 48.0944 -146.8107 89° East 516 594 36,000  Level FlightAware Transoceanic
Sun 08:51:00 AM 48.0975 -146.5978 89° East 516 594 36,000  Level FlightAware Transoceanic
Sun 08:52:00 AM 48.1003 -146.3848 89° East 516 594 36,000  Level FlightAware Transoceanic
Sun 08:53:00 AM 48.1026 -146.1718 89° East 516 594 36,000  Level FlightAware Transoceanic
Sun 08:54:00 AM 48.1046 -145.9588 89° East 516 594 36,000  Level FlightAware Transoceanic
Sun 08:55:00 AM 48.0991 -145.7855 89° East 489 563 36,000  Level FlightAware Transoceanic
Sun 08:56:00 AM 48.1006 -145.5858 89° East 489 563 36,000  Level FlightAware Transoceanic
Sun 08:57:00 AM 48.1016 -145.3861 90° East 489 563 36,000  Level FlightAware Transoceanic
Sun 08:58:00 AM 48.1024 -145.1864 90° East 489 563 36,000  Level FlightAware Transoceanic
Sun 08:59:00 AM 48.1027 -144.9866 90° East 489 563 36,000  Level FlightAware Transoceanic
Sun 09:00:00 AM 48.1028 -144.7869 90° East 489 563 36,000  Level FlightAware Transoceanic
Sun 09:01:00 AM 48.1025 -144.5872 90° East 489 563 36,000  Level FlightAware Transoceanic
Sun 09:02:00 AM 48.1018 -144.3875 90° East 489 563 36,000  Level FlightAware Transoceanic
Sun 09:03:00 AM 48.1008 -144.1877 91° East 489 563 36,000  Level FlightAware Transoceanic
Sun 09:04:00 AM 48.0995 -143.9880 91° East 489 563 36,000  Level FlightAware Transoceanic
Sun 09:05:00 AM 48.0978 -143.7883 91° East 489 563 36,000  Level FlightAware Transoceanic
Sun 09:06:00 AM 48.0957 -143.5887 91° East 489 563 36,000  Level FlightAware Transoceanic
Sun 09:07:00 AM 48.0934 -143.3890 91° East 489 563 36,000  Level FlightAware Transoceanic
Sun 09:08:00 AM 48.0906 -143.1894 91° East 489 563 36,000  Level FlightAware Transoceanic
Sun 09:09:00 AM 48.0876 -142.9897 91° East 489 563 36,000  Level FlightAware Transoceanic
Sun 09:10:00 AM 48.0841 -142.7902 92° East 489 563 36,000  Level FlightAware Transoceanic
Sun 09:11:00 AM 48.0804 -142.5906 92° East 489 563 36,000  Level FlightAware Transoceanic
Sun 09:12:00 AM 48.0762 -142.3911 92° East 489 563 36,000  Level FlightAware Transoceanic
Sun 09:13:00 AM 48.0718 -142.1916 92° East 489 563 36,000  Level FlightAware Transoceanic
Sun 09:14:00 AM 48.0670 -141.9921 92° East 489 563 36,000  Level FlightAware Transoceanic
Sun 09:15:00 AM 48.0618 -141.7927 92° East 489 563 36,000  Level FlightAware Transoceanic
Sun 09:16:00 AM 48.0564 -141.5933 92° East 489 563 36,000 811 Level FlightAware Transoceanic
Sun 09:16:14 AM 48.0667 -141.6000 93° East 486 559 37,000  Climbing Oakland Oceanic (ODAPS)
Sun 09:17:00 AM 48.0505 -141.3939 93° East 489 563 36,000 -566 Descending FlightAware Transoceanic
Sun 09:18:00 AM 48.0443 -141.1947 93° East 489 563 36,000  Level FlightAware Transoceanic
Sun 09:19:00 AM 48.0378 -140.9954 93° East 489 563 36,000  Level FlightAware Transoceanic
Sun 09:20:00 AM 48.0309 -140.7962 93° East 489 563 36,000  Level FlightAware Transoceanic
Sun 09:21:00 AM 48.0237 -140.5971 93° East 489 563 36,000 500 Level FlightAware Transoceanic
Sun 09:22:00 AM 48.0187 -140.3996 94° East 486 559 37,000 500 Climbing FlightAware Transoceanic
Sun 09:23:00 AM 48.0095 -140.1998 94° East 486 559 37,000  Level FlightAware Transoceanic
Sun 09:24:00 AM 48.0000 -140.0000 87° East 486 559 37,000  Level FlightAware Transoceanic
Sun 09:24:43 AM 48.0000 -140.0000 87° East 488 562 37,000  Level Oakland Oceanic (ODAPS)
Sun 09:25:00 AM 48.0072 -139.7988 87° East 486 559 37,000  Level FlightAware Transoceanic
Sun 09:26:00 AM 48.0141 -139.5975 87° East 486 559 37,000  Level FlightAware Transoceanic
Sun 09:27:00 AM 48.0206 -139.3962 87° East 486 559 37,000  Level FlightAware Transoceanic
Sun 09:28:00 AM 48.0268 -139.1948 87° East 486 559 37,000  Level FlightAware Transoceanic
Sun 09:29:00 AM 48.0326 -138.9934 88° East 486 559 37,000  Level FlightAware Transoceanic
Sun 09:30:00 AM 48.0381 -138.7920 88° East 486 559 37,000  Level FlightAware Transoceanic
Sun 09:31:00 AM 48.0432 -138.5905 88° East 488 562 37,000  Level FlightAware Transoceanic
Sun 09:32:00 AM 48.0480 -138.3889 88° East 488 562 37,000  Level FlightAware Transoceanic
Sun 09:33:00 AM 48.0524 -138.1874 88° East 488 562 37,000  Level FlightAware Transoceanic
Sun 09:34:00 AM 48.0565 -137.9857 88° East 488 562 37,000  Level FlightAware Transoceanic
Sun 09:35:00 AM 48.0602 -137.7841 88° East 488 562 37,000  Level FlightAware Transoceanic
Sun 09:36:00 AM 48.0635 -137.5824 89° East 488 562 37,000  Level FlightAware Transoceanic
Sun 09:37:00 AM 48.0665 -137.3808 89° East 488 562 37,000  Level FlightAware Transoceanic
Sun 09:38:00 AM 48.0692 -137.1790 89° East 488 562 37,000  Level FlightAware Transoceanic
Sun 09:39:00 AM 48.0715 -136.9773 89° East 488 562 37,000  Level FlightAware Transoceanic
Sun 09:40:00 AM 48.0734 -136.7756 89° East 488 562 37,000  Level FlightAware Transoceanic
Sun 09:41:00 AM 48.0750 -136.5738 89° East 488 562 37,000  Level FlightAware Transoceanic
Sun 09:42:00 AM 48.0762 -136.3720 90° East 488 562 37,000  Level FlightAware Transoceanic
Sun 09:42:53 AM 48.0833 -136.2333 90° East 488 562 37,000  Level Oakland Oceanic (ODAPS)
Sun 09:43:00 AM 48.0771 -136.1702 90° East 488 562 37,000  Level FlightAware Transoceanic
Sun 09:44:00 AM 48.0776 -135.9685 90° East 488 562 37,000  Level FlightAware Transoceanic
Sun 09:45:00 AM 48.0778 -135.7667 90° East 488 562 37,000  Level FlightAware Transoceanic
Sun 09:46:00 AM 48.0776 -135.5649 90° East 488 562 37,000  Level FlightAware Transoceanic
Sun 09:47:00 AM 48.0771 -135.3631 90° East 488 562 37,000  Level FlightAware Transoceanic
Sun 09:48:00 AM 48.0762 -135.1613 90° East 488 562 37,000  Level FlightAware Transoceanic
Sun 09:49:00 AM 48.0801 -135.0060 91° East 488 562 37,000  Level FlightAware Transoceanic
Sun 09:50:00 AM 48.0783 -134.8015 91° East 488 562 37,000  Level FlightAware Transoceanic
Sun 09:51:00 AM 48.0761 -134.5970 91° East 488 562 37,000  Level FlightAware Transoceanic
Sun 09:52:00 AM 48.0736 -134.3925 91° East 488 562 37,000  Level FlightAware Transoceanic
Sun 09:53:00 AM 48.0707 -134.1881 91° East 488 562 37,000  Level FlightAware Transoceanic
Sun 09:54:00 AM 48.0674 -133.9836 91° East 488 562 37,000  Level FlightAware Transoceanic
Sun 09:55:00 AM 48.0638 -133.7792 92° East 488 562 37,000  Level FlightAware Transoceanic
Sun 09:56:00 AM 48.0598 -133.5748 92° East 488 562 37,000  Level FlightAware Transoceanic
Sun 09:57:00 AM 48.0554 -133.3705 92° East 488 562 37,000  Level FlightAware Transoceanic
Sun 09:58:00 AM 48.0507 -133.1662 92° East 488 562 37,000  Level FlightAware Transoceanic
Sun 09:59:00 AM 48.0457 -132.9619 92° East 488 562 37,000  Level FlightAware Transoceanic
Sun 10:00:00 AM 48.0402 -132.7577 92° East 488 562 37,000  Level FlightAware Transoceanic
Sun 10:01:00 AM 48.0344 -132.5535 93° East 488 562 37,000  Level FlightAware Transoceanic
Sun 10:02:00 AM 48.0283 -132.3494 93° East 488 562 37,000  Level FlightAware Transoceanic
Sun 10:03:00 AM 48.0217 -132.1453 93° East 488 562 37,000  Level FlightAware Transoceanic
Sun 10:04:00 AM 48.0149 -131.9412 93° East 488 562 37,000  Level FlightAware Transoceanic
Sun 10:05:00 AM 48.0076 -131.7372 93° East 488 562 37,000  Level FlightAware Transoceanic
Sun 10:05:14 AM 48.0000 -131.7167 75° East 470 541 37,000  Level Vancouver Center
Sun 10:06:00 AM 48.0000 -131.5333 75° East 488 562 37,000  Level FlightAware Transoceanic
Sun 10:06:14 AM 47.9667 -131.5167 104° East 490 564 37,000  Level Vancouver Center
Sun 10:07:00 AM 48.0343 -131.3436 75° East 488 562 37,000  Level FlightAware Transoceanic
Sun 10:08:00 AM 48.0682 -131.1536 75° East 488 562 37,000  Level FlightAware Transoceanic
Sun 10:08:19 AM 48.0667 -131.1000 70° East 460 529 37,000  Level Vancouver Center
Sun 10:09:00 AM 48.1019 -130.9634 75° East 488 562 37,000  Level FlightAware Transoceanic
Sun 10:09:19 AM 48.1000 -130.8833 77° East 500 575 37,000  Level Vancouver Center
Sun 10:10:00 AM 48.1352 -130.7729 75° East 488 562 37,000  Level FlightAware Transoceanic
Sun 10:10:19 AM 48.1333 -130.6833 76° East 500 575 37,000  Level Vancouver Center
Sun 10:11:19 AM 48.1833 -130.4667 71° East 500 575 37,000  Level Vancouver Center
Sun 10:12:19 AM 48.2000 -130.2833 82° East 500 575 37,000  Level Vancouver Center
Sun 10:13:19 AM 48.2167 -130.0833 83° East 500 575 37,000  Level Vancouver Center
Sun 10:14:19 AM 48.2333 -129.8667 83° East 500 575 37,000  Level Vancouver Center
Sun 10:15:19 AM 48.2333 -129.6667 90° East 490 564 37,000  Level Vancouver Center
Sun 10:16:19 AM 48.2500 -129.4667 83° East 490 564 37,000  Level Vancouver Center
Sun 10:22:40 AM 48.3290 -128.1260 83° East 496 571 37,000  Level FlightAware ADS-B
Sun 10:23:20 AM 48.3330 -128.0020 87° East 496 571 37,000  Level FlightAware ADS-B
Sun 10:23:54 AM 48.3380 -127.9020 86° East 496 571 37,000  Level FlightAware ADS-B
Sun 10:24:50 AM 48.3350 -127.7020 91° East 493 567 37,000  Level FlightAware ADS-B
Sun 10:25:36 AM 48.3340 -127.5230 90° East 495 570 37,000  Level FlightAware ADS-B
Sun 10:26:17 AM 48.3340 -127.3820 90° East 496 571 37,000  Level FlightAware ADS-B
Sun 10:27:20 AM 48.3340 -127.1690 90° East 497 572 37,000  Level FlightAware ADS-B
Sun 10:28:00 AM 48.3340 -127.0280 90° East 498 573 37,000  Level FlightAware ADS-B
Sun 10:28:40 AM 48.3330 -126.9030 91° East 499 574 37,000  Level FlightAware ADS-B
Sun 10:29:05 AM 48.3330 -126.8070 90° East 499 574 37,000  Level FlightAware ADS-B
Sun 10:30:05 AM 48.3320 -126.5960 90° East 499 574 37,000  Level FlightAware ADS-B
Sun 10:30:53 AM 48.3300 -126.4310 91° East 497 572 37,000  Level FlightAware ADS-B
Sun 10:31:35 AM 48.3290 -126.2830 91° East 494 568 37,000  Level FlightAware ADS-B
Sun 10:32:17 AM 48.3270 -126.1430 91° East 492 566 37,000  Level FlightAware ADS-B
Sun 10:32:57 AM 48.3260 -126.0070 91° East 489 563 37,000  Level FlightAware ADS-B
Sun 10:33:37 AM 48.3240 -125.8680 91° East 487 560 37,000  Level FlightAware ADS-B
Sun 10:34:23 AM 48.3220 -125.7170 91° East 485 558 37,000  Level FlightAware ADS-B
Sun 10:34:59 AM 48.3200 -125.5960 91° East 484 557 37,000  Level FlightAware ADS-B
Sun 10:35:55 AM 48.3170 -125.4080 91° East 485 558 37,000  Level FlightAware ADS-B
Sun 10:36:45 AM 48.3130 -125.2390 92° East 487 560 37,000  Level FlightAware ADS-B
Sun 10:37:22 AM 48.3110 -125.1140 91° East 488 562 37,000  Level FlightAware ADS-B
Sun 10:38:01 AM 48.3080 -124.9830 92° East 489 563 37,000  Level FlightAware ADS-B
Sun 10:38:48 AM 48.3050 -124.8500 92° East 491 565 37,000  Level FlightAware ADS-B
Sun 10:39:15 AM 48.3030 -124.7310 91° East 493 567 37,000 -269 Level FlightAware ADS-B
Sun 10:39:55 AM 48.2930 -124.5920 96° East 493 567 36,700 -1,794 Descending FlightAware ADS-B
Sun 10:40:52 AM 48.2690 -124.4050 101° East 488 562 34,100 -2,600 Descending FlightAware ADS-B
Sun 10:41:25 AM 48.2550 -124.2970 101° East 476 548 32,800 -2,328 Descending FlightAware ADS-B
Sun 10:41:59 AM 48.2390 -124.1890 103° East 466 536 31,500 -2,344 Descending FlightAware ADS-B
Sun 10:42:29 AM 48.2250 -124.0950 103° East 458 527 30,300 -2,400 Descending FlightAware ADS-B
Sun 10:42:59 AM 48.2120 -124.0030 102° East 451 519 29,100 -2,500 Descending FlightAware ADS-B
Sun 10:43:41 AM 48.1930 -123.8730 102° East 442 509 27,300 -2,595 Descending FlightAware ADS-B
Sun 10:44:13 AM 48.1790 -123.7780 102° East 434 499 25,900 -2,583 Descending FlightAware ADS-B
Sun 10:44:53 AM 48.1620 -123.6630 102° East 422 486 24,200 -2,203 Descending FlightAware ADS-B
Sun 10:45:32 AM 48.1500 -123.5840 103° East 416 479 23,000 -1,974 Descending FlightAware ADS-B
Sun 10:46:09 AM 48.1380 -123.5000 102° East 410 472 21,700 -2,129 Descending FlightAware ADS-B
Sun 10:46:34 AM 48.1290 -123.4420 103° East 406 467 20,800 -3,037 Descending FlightAware ADS-B
Sun 10:47:30 AM 48.0980 -123.2350 103° East 393 452 17,600 -3,165 Descending FlightAware ADS-B
Sun 10:48:05 AM 48.0840 -123.1420 103° East 391 450 16,000 -2,475 Descending FlightAware ADS-B
Sun 10:48:50 AM 48.0660 -123.0270 103° East 377 434 14,300 -2,188 Descending FlightAware ADS-B
Sun 10:49:30 AM 48.0510 -122.9290 103° East 367 422 12,900 -1,629 Descending FlightAware ADS-B
Sun 10:50:00 AM 48.0380 -122.8570 105° East 339 390 12,400 -600 Descending FlightAware ADS-B
Sun 10:50:40 AM 48.0100 -122.7880 121° Southeast 298 343 12,200 -448 Descending FlightAware ADS-B
Sun 10:51:07 AM 47.9870 -122.7400 126° Southeast 276 318 11,900 -1,313 Descending FlightAware ADS-B
Sun 10:51:44 AM 47.9590 -122.6880 129° Southeast 280 322 10,800 -1,579 Descending FlightAware ADS-B
Sun 10:52:23 AM 47.9250 -122.6270 130° Southeast 276 318 9,900 -1,292 Descending FlightAware ADS-B
Sun 10:52:49 AM 47.9050 -122.5890 128° Southeast 268 308 9,400 -1,080 Descending FlightAware ADS-B
Sun 10:53:13 AM 47.8870 -122.5580 131° Southeast 265 305 9,000 -1,167 Descending FlightAware ADS-B
Sun 10:53:25 AM 47.8780 -122.5400 127° Southeast 263 303 8,700 -750 Descending FlightAware ADS-B
Sun 10:53:53 AM 47.8560 -122.5030 132° Southeast 245 282 8,500 -842 Descending FlightAware ADS-B
Sun 10:54:22 AM 47.8370 -122.4720 132° Southeast 243 280 7,900 -1,273 Descending FlightAware ADS-B
Sun 10:55:32 AM 47.7720 -122.4030 144° Southeast 232 267 6,400 -1,014 Descending FlightAware ADS-B
Sun 10:56:44 AM 47.7210 -122.3640 153° Southeast 238 274 5,500 -1,200 Descending FlightAware ADS-B
Sun 10:57:07 AM 47.6800 -122.3340 154° Southeast 240 276 4,500 -1,585 Descending FlightAware ADS-B
Sun 10:57:37 AM 47.6480 -122.3120 155° Southeast 219 252 4,100 -800 Descending FlightAware ADS-B
Sun 10:57:52 AM 47.6390 -122.3100 171° South 217 250 3,900 -1,000 Descending FlightAware ADS-B
Sun 10:58:01 AM 47.6260 -122.3100 180° South 211 243 3,700 -1,200 Descending FlightAware ADS-B
Sun 10:58:37 AM 47.5930 -122.3100 180° South 203 234 3,000 -677 Descending FlightAware ADS-B
Sun 10:59:03 AM 47.5720 -122.3100 180° South 203 234 3,000 -968 Level FlightAware ADS-B
Sun 11:00:42 AM 47.4920 -122.3110 180° South 900 -1,163 Descending FlightAware ADS-B
Sun 11:01:12 AM 47.4720 -122.3110 180° South 150 173 500 -800 Descending FlightAware ADS-B

Login

Don't have an account? Register now (free) for customized features, flight alerts, and more!